Time;durP1;ratioP1;P1;durP2;ratioP2;P2;SDS_P1;SDS_P2;PMS_P1;PMS_P2;Temp;Humidity;BMP_temperature;BMP_pressure;BME280_temperature;BME280_humidity;BME280_pressure;Samples;Min_cycle;Max_cycle;Signal;HPM_P1;HPM_P2
2022/01/16 00:00:50;;;;;;;61.60;29.58;;;2.00;97.00;;;;;;5042421;28;20044;-86
2022/01/16 00:06:00;;;;;;;74.85;30.42;;;2.10;97.00;;;;;;5032990;28;20079;-86
2022/01/16 00:08:26;;;;;;;66.50;30.67;;;2.10;97.00;;;;;;5049400;28;20506;-86
2022/01/16 00:10:52;;;;;;;70.95;32.20;;;2.10;97.10;;;;;;5050053;28;20382;-86
2022/01/16 00:13:17;;;;;;;68.40;29.88;;;2.10;97.10;;;;;;5050495;28;20095;-86
2022/01/16 00:15:44;;;;;;;70.90;30.58;;;2.10;97.10;;;;;;5034961;28;20091;-86
2022/01/16 00:18:21;;;;;;;68.47;30.38;;;2.10;97.10;;;;;;5039318;28;20028;-86
2022/01/16 00:20:48;;;;;;;66.30;31.60;;;2.10;97.00;;;;;;5040006;28;20035;-86
2022/01/16 00:23:22;;;;;;;66.00;30.13;;;2.10;97.10;;;;;;5050174;28;20395;-86
2022/01/16 00:25:47;;;;;;;67.30;30.98;;;2.10;97.10;;;;;;5062942;28;20064;-86
2022/01/16 00:28:13;;;;;;;62.35;29.52;;;2.20;97.10;;;;;;5045057;28;20501;-86
2022/01/16 00:30:38;;;;;;;63.25;31.05;;;2.10;97.10;;;;;;5041598;28;20473;-86
2022/01/16 00:33:04;;;;;;;54.38;29.15;;;2.20;97.10;;;;;;5034313;28;20029;-86
2022/01/16 00:35:30;;;;;;;59.28;29.35;;;2.20;97.10;;;;;;5040611;28;20032;-86
2022/01/16 00:37:55;;;;;;;54.90;28.95;;;2.20;97.10;;;;;;5046093;28;20025;-86
2022/01/16 00:40:20;;;;;;;55.03;28.70;;;2.20;97.10;;;;;;5041626;28;20311;-86
2022/01/16 00:42:46;;;;;;;55.50;28.08;;;2.20;97.10;;;;;;5049223;28;20400;-86
2022/01/16 00:45:11;;;;;;;55.00;28.45;;;2.20;97.10;;;;;;5037427;28;20030;-86
2022/01/16 00:47:37;;;;;;;52.15;27.27;;;2.20;97.10;;;;;;5048859;28;20055;-86
2022/01/16 00:50:04;;;;;;;45.28;26.95;;;2.20;97.10;;;;;;5036064;28;20124;-86
2022/01/16 00:52:29;;;;;;;44.55;25.98;;;2.20;97.20;;;;;;5048539;28;20361;-86
2022/01/16 00:54:58;;;;;;;50.47;26.95;;;2.20;97.20;;;;;;5043772;28;20017;-86
2022/01/16 00:57:24;;;;;;;45.80;25.58;;;2.20;97.20;;;;;;5048113;28;20056;-86
2022/01/16 00:59:49;;;;;;;47.92;26.73;;;2.20;97.20;;;;;;5048141;28;20024;-86
2022/01/16 01:02:15;;;;;;;46.22;26.30;;;2.20;97.20;;;;;;5036391;28;20033;-86
2022/01/16 01:04:44;;;;;;;49.08;25.98;;;2.20;97.30;;;;;;5043330;28;20404;-86
2022/01/16 01:07:10;;;;;;;48.33;25.98;;;2.20;97.30;;;;;;5044913;28;20029;-85
2022/01/16 01:09:36;;;;;;;48.90;25.65;;;2.20;97.30;;;;;;5044207;28;20396;-85
2022/01/16 01:12:03;;;;;;;47.22;25.88;;;2.20;97.30;;;;;;5035319;28;20024;-86
2022/01/16 01:14:41;;;;;;;49.13;26.52;;;2.30;97.40;;;;;;5050356;28;20025;-86
2022/01/16 01:17:09;;;;;;;46.63;26.40;;;2.20;97.40;;;;;;5043746;28;20032;-86
2022/01/16 01:19:35;;;;;;;49.05;26.73;;;2.30;97.40;;;;;;5048982;28;20037;-86
2022/01/16 01:22:04;;;;;;;47.38;25.65;;;2.30;97.40;;;;;;5049105;28;20418;-86
2022/01/16 01:24:30;;;;;;;48.30;26.27;;;2.20;97.40;;;;;;5047943;28;20029;-86
2022/01/16 01:27:41;;;;;;;50.58;26.15;;;2.30;97.40;;;;;;5046442;28;20091;-85
2022/01/16 01:29:48;;;;;;;49.65;27.77;;;2.30;97.40;;;;;;5036783;28;20505;-85
2022/01/16 01:32:14;;;;;;;49.88;27.08;;;2.30;97.50;;;;;;5040055;28;20096;-86
2022/01/16 01:34:39;;;;;;;50.28;27.38;;;2.30;97.50;;;;;;5045022;28;20116;-85
2022/01/16 01:37:05;;;;;;;57.28;28.60;;;2.30;97.50;;;;;;5038972;28;20021;-86
2022/01/16 01:39:30;;;;;;;53.08;28.55;;;2.30;97.50;;;;;;5043730;28;20029;-85
2022/01/16 01:42:05;;;;;;;55.38;29.15;;;2.30;97.60;;;;;;5042155;28;20033;-86
2022/01/16 01:52:44;;;;;;;57.58;29.25;;;2.30;97.60;;;;;;5032207;28;20094;-85
2022/01/16 01:55:09;;;;;;;57.50;27.55;;;2.30;97.70;;;;;;5047640;28;20473;-85
2022/01/16 01:57:35;;;;;;;56.35;28.13;;;2.30;97.70;;;;;;5050010;28;20033;-86
2022/01/16 02:00:01;;;;;;;55.47;28.05;;;2.20;97.70;;;;;;5039738;28;20033;-85
2022/01/16 02:02:31;;;;;;;52.03;27.27;;;2.30;97.70;;;;;;5045126;28;20489;-86
2022/01/16 02:04:57;;;;;;;55.15;28.98;;;2.20;97.80;;;;;;5045663;28;20120;-86
2022/01/16 02:07:23;;;;;;;53.45;27.05;;;2.30;97.80;;;;;;5046721;28;20079;-86
2022/01/16 02:09:48;;;;;;;50.67;26.65;;;2.30;97.80;;;;;;5051304;28;20183;-86
2022/01/16 02:12:14;;;;;;;51.25;27.08;;;2.30;97.90;;;;;;5050023;28;20036;-86
2022/01/16 02:31:14;;;;;;;57.10;27.88;;;2.30;97.90;;;;;;5054822;28;20115;-86
2022/01/16 02:36:45;;;;;;;57.88;26.77;;;2.40;98.00;;;;;;5049583;28;20098;-86
2022/01/16 02:39:13;;;;;;;52.92;28.30;;;2.40;98.00;;;;;;5051510;28;20404;-86
2022/01/16 02:41:40;;;;;;;72.85;28.50;;;2.30;98.10;;;;;;5052417;28;20021;-86
2022/01/16 02:46:51;;;;;;;68.70;27.70;;;2.40;98.10;;;;;;5045445;28;20048;-86
2022/01/16 02:49:18;;;;;;;69.53;28.83;;;2.40;98.10;;;;;;5049347;28;20116;-86
2022/01/16 02:51:44;;;;;;;61.22;29.35;;;2.40;98.20;;;;;;5044581;28;20400;-86
2022/01/16 02:54:09;;;;;;;66.93;28.25;;;2.40;98.20;;;;;;5053508;28;20025;-86
2022/01/16 02:56:35;;;;;;;67.70;29.10;;;2.40;98.20;;;;;;5050253;28;20039;-86
2022/01/16 02:59:01;;;;;;;77.75;29.88;;;2.40;98.20;;;;;;5054931;28;20037;-86
2022/01/16 03:01:26;;;;;;;82.15;30.90;;;2.40;98.30;;;;;;5054014;28;20029;-86
2022/01/16 03:03:52;;;;;;;81.05;30.20;;;2.40;98.30;;;;;;5055148;28;20499;-86
2022/01/16 03:06:17;;;;;;;69.97;28.77;;;2.40;98.30;;;;;;5053231;28;20082;-86
2022/01/16 03:08:43;;;;;;;80.60;27.20;;;2.40;98.30;;;;;;5053411;28;20032;-86
2022/01/16 03:11:21;;;;;;;62.50;26.55;;;2.50;98.30;;;;;;5051570;28;20021;-86
2022/01/16 03:13:49;;;;;;;72.95;25.70;;;2.40;98.30;;;;;;5053641;28;20036;-86
2022/01/16 03:16:22;;;;;;;77.47;27.23;;;2.40;98.40;;;;;;5039916;28;20492;-86
2022/01/16 03:21:54;;;;;;;77.22;26.40;;;2.40;98.40;;;;;;5049044;28;20064;-86
2022/01/16 03:24:21;;;;;;;69.90;24.08;;;2.40;98.40;;;;;;5050889;28;20037;-86
2022/01/16 03:26:46;;;;;;;83.10;26.13;;;2.40;98.50;;;;;;5043520;28;20115;-86
2022/01/16 03:29:12;;;;;;;66.55;24.48;;;2.40;98.50;;;;;;5033036;28;20017;-86
2022/01/16 03:31:38;;;;;;;90.75;25.92;;;2.40;98.50;;;;;;5045086;28;20030;-86
2022/01/16 03:34:04;;;;;;;68.60;23.60;;;2.40;98.50;;;;;;5047286;28;20017;-86
2022/01/16 03:36:29;;;;;;;69.10;24.17;;;2.40;98.50;;;;;;5046431;28;20113;-86
2022/01/16 03:38:55;;;;;;;68.97;23.85;;;2.40;98.50;;;;;;5041916;28;20124;-86
2022/01/16 03:41:20;;;;;;;82.53;25.70;;;2.40;98.50;;;;;;5038352;28;20040;-86
2022/01/16 03:43:46;;;;;;;101.38;26.90;;;2.40;98.50;;;;;;5050654;28;20052;-86
2022/01/16 03:46:11;;;;;;;81.57;25.42;;;2.40;98.50;;;;;;5037231;28;20029;-86
2022/01/16 03:48:37;;;;;;;80.05;27.08;;;2.40;98.60;;;;;;5050222;28;20500;-86
2022/01/16 03:51:02;;;;;;;87.82;28.23;;;2.40;98.60;;;;;;5048688;28;20408;-86
2022/01/16 03:53:28;;;;;;;75.95;27.48;;;2.40;98.60;;;;;;5046651;28;20076;-86
2022/01/16 03:55:54;;;;;;;68.63;26.75;;;2.40;98.60;;;;;;5047911;28;20125;-86
2022/01/16 03:58:20;;;;;;;64.32;24.50;;;2.40;98.60;;;;;;5050818;28;20033;-86
2022/01/16 04:00:45;;;;;;;63.80;25.38;;;2.30;98.60;;;;;;5039589;28;20380;-86
2022/01/16 04:03:11;;;;;;;64.07;24.45;;;2.30;98.60;;;;;;5051338;28;20033;-86
2022/01/16 04:05:37;;;;;;;69.05;27.42;;;2.30;98.60;;;;;;5047569;28;20045;-86
2022/01/16 04:08:03;;;;;;;63.95;24.40;;;2.40;98.50;;;;;;5040406;28;20040;-86
2022/01/16 04:10:29;;;;;;;70.90;27.35;;;2.40;98.50;;;;;;5033957;28;20052;-86
2022/01/16 04:12:54;;;;;;;73.07;25.80;;;2.30;98.50;;;;;;5039929;28;20036;-86
2022/01/16 04:17:45;;;;;;;63.75;24.33;;;2.30;98.50;;;;;;5037237;28;20111;-85
2022/01/16 04:20:16;;;;;;;61.03;25.70;;;2.30;98.40;;;;;;5044546;28;20484;-86
2022/01/16 04:22:42;;;;;;;55.33;24.10;;;2.30;98.40;;;;;;5044195;28;20577;-86
2022/01/16 04:25:08;;;;;;;54.70;23.40;;;2.30;98.30;;;;;;5036479;28;20335;-86
2022/01/16 04:27:34;;;;;;;55.83;24.40;;;2.20;98.20;;;;;;5041409;28;20453;-86
2022/01/16 04:30:01;;;;;;;53.53;22.80;;;2.20;98.10;;;;;;5049841;28;20116;-86
2022/01/16 04:32:27;;;;;;;54.28;23.08;;;2.30;98.20;;;;;;5048161;28;20029;-86
2022/01/16 04:34:52;;;;;;;51.63;23.08;;;2.20;98.00;;;;;;5048083;28;20453;-86
2022/01/16 04:37:18;;;;;;;52.58;23.08;;;2.30;98.10;;;;;;5049032;28;20079;-86
2022/01/16 04:39:50;;;;;;;51.42;22.13;;;2.20;98.00;;;;;;5048983;28;20124;-86
2022/01/16 04:44:59;;;;;;;49.67;20.20;;;2.20;97.70;;;;;;5051382;28;20063;-86
2022/01/16 04:47:26;;;;;;;46.92;20.08;;;2.20;97.70;;;;;;5049860;28;20036;-86
2022/01/16 04:49:51;;;;;;;43.60;20.60;;;2.30;97.60;;;;;;5048089;28;20098;-86
2022/01/16 04:52:17;;;;;;;42.70;19.85;;;2.20;97.40;;;;;;5041204;28;20034;-86
2022/01/16 04:54:42;;;;;;;42.92;20.20;;;2.20;97.30;;;;;;5045369;28;20024;-86
2022/01/16 04:57:08;;;;;;;36.00;17.08;;;2.30;97.20;;;;;;5038632;28;20614;-86
2022/01/16 04:59:33;;;;;;;40.25;20.55;;;2.20;96.80;;;;;;5041207;28;20040;-86
2022/01/16 05:01:59;;;;;;;40.00;20.58;;;2.30;96.90;;;;;;5045945;28;20061;-86
2022/01/16 05:04:24;;;;;;;39.13;18.90;;;2.30;96.90;;;;;;5050139;28;20088;-86
2022/01/16 05:06:50;;;;;;;37.63;17.77;;;2.30;96.80;;;;;;5043500;28;20041;-86
2022/01/16 05:09:15;;;;;;;37.90;17.52;;;2.30;96.50;;;;;;5048530;28;20078;-86
2022/01/16 05:11:41;;;;;;;38.83;18.77;;;2.30;96.30;;;;;;5048584;28;20025;-86
2022/01/16 05:16:40;;;;;;;39.03;19.70;;;2.30;96.10;;;;;;5048563;28;20025;-86
2022/01/16 05:19:11;;;;;;;38.20;18.85;;;2.30;96.10;;;;;;5041619;28;20033;-86
2022/01/16 05:21:38;;;;;;;37.45;18.55;;;2.30;96.10;;;;;;5044035;28;20440;-86
2022/01/16 05:24:08;;;;;;;40.95;20.00;;;2.40;96.10;;;;;;5049724;28;20025;-86
2022/01/16 05:26:35;;;;;;;46.60;21.13;;;2.40;96.20;;;;;;5040349;28;20052;-86
2022/01/16 05:29:00;;;;;;;40.90;18.88;;;2.40;96.30;;;;;;5050548;28;20025;-86
2022/01/16 05:31:26;;;;;;;43.15;21.52;;;2.30;96.40;;;;;;5043653;28;20029;-86
2022/01/16 05:33:53;;;;;;;45.15;20.77;;;2.40;96.50;;;;;;5029605;28;20053;-86
2022/01/16 05:36:22;;;;;;;43.15;21.40;;;2.40;96.50;;;;;;5047640;28;20071;-86
2022/01/16 05:38:49;;;;;;;43.10;21.60;;;2.30;96.60;;;;;;5036973;28;20025;-86
2022/01/16 05:41:17;;;;;;;45.97;22.15;;;2.40;96.60;;;;;;5039131;28;20048;-86
2022/01/16 05:43:42;;;;;;;44.80;21.85;;;2.40;96.60;;;;;;5036920;28;20025;-86
2022/01/16 05:46:08;;;;;;;41.78;18.88;;;2.40;96.50;;;;;;5046141;28;20388;-87
2022/01/16 05:48:33;;;;;;;45.83;22.13;;;2.40;96.30;;;;;;5036439;28;20485;-86
2022/01/16 05:51:01;;;;;;;48.53;23.02;;;2.40;96.30;;;;;;5034947;28;20068;-86
2022/01/16 05:53:27;;;;;;;40.50;17.33;;;2.40;96.30;;;;;;5049308;28;20025;-86
2022/01/16 05:55:52;;;;;;;45.97;23.52;;;2.40;96.20;;;;;;5042092;28;20025;-86
2022/01/16 05:58:18;;;;;;;44.03;19.15;;;2.40;96.10;;;;;;5040434;28;20028;-87
2022/01/16 06:00:48;;;;;;;49.85;23.08;;;2.40;96.00;;;;;;5047428;28;20495;-86
2022/01/16 06:03:13;;;;;;;47.05;23.55;;;2.40;96.00;;;;;;5041369;28;20507;-86
2022/01/16 06:05:39;;;;;;;50.67;23.33;;;2.50;95.90;;;;;;5041509;28;20033;-86
2022/01/16 06:08:11;;;;;;;46.65;22.48;;;2.50;96.00;;;;;;5042752;28;20400;-86
2022/01/16 06:10:37;;;;;;;45.25;22.88;;;2.50;96.00;;;;;;5041034;28;20022;-86
2022/01/16 06:13:04;;;;;;;43.58;19.98;;;2.50;95.90;;;;;;5047753;28;20017;-87
2022/01/16 06:15:33;;;;;;;51.42;23.63;;;2.50;95.80;;;;;;5041693;28;20025;-86
2022/01/16 06:18:00;;;;;;;49.38;23.20;;;2.50;95.70;;;;;;5029373;28;20036;-86
2022/01/16 06:20:26;;;;;;;45.95;22.50;;;2.50;95.70;;;;;;5033140;28;20047;-86
2022/01/16 06:22:53;;;;;;;52.33;25.40;;;2.50;95.60;;;;;;5048676;28;20021;-86
2022/01/16 06:25:19;;;;;;;47.28;21.45;;;2.50;95.60;;;;;;5047419;28;20025;-86
2022/01/16 06:27:47;;;;;;;49.45;24.88;;;2.50;95.60;;;;;;5044274;28;20094;-86
2022/01/16 06:30:13;;;;;;;55.80;27.13;;;2.40;95.60;;;;;;5052109;28;20017;-86
2022/01/16 06:32:39;;;;;;;52.40;27.42;;;2.50;95.60;;;;;;5035909;28;20029;-86
2022/01/16 06:35:07;;;;;;;56.03;25.10;;;2.40;95.60;;;;;;5045846;28;20520;-85
2022/01/16 06:37:33;;;;;;;52.83;25.95;;;2.40;95.60;;;;;;5039976;28;20033;-85
2022/01/16 06:39:58;;;;;;;51.22;25.95;;;2.40;95.60;;;;;;5042723;28;20079;-86
2022/01/16 06:42:24;;;;;;;53.50;28.23;;;2.30;95.30;;;;;;5046740;28;20044;-85
2022/01/16 06:44:50;;;;;;;51.70;26.40;;;2.30;95.10;;;;;;5046508;28;20033;-85
2022/01/16 06:47:16;;;;;;;54.85;25.73;;;2.30;94.90;;;;;;5030588;28;20022;-85
2022/01/16 06:49:41;;;;;;;55.85;28.02;;;2.30;94.80;;;;;;5040766;28;20179;-85
2022/01/16 06:52:07;;;;;;;59.97;29.50;;;2.20;94.80;;;;;;5048477;28;20025;-85
2022/01/16 06:54:33;;;;;;;57.15;29.70;;;2.20;94.90;;;;;;5036198;28;20108;-85
2022/01/16 06:56:58;;;;;;;62.28;29.42;;;2.20;94.90;;;;;;5047493;28;20071;-85
2022/01/16 06:59:24;;;;;;;57.53;28.85;;;2.10;94.90;;;;;;5050343;28;20048;-85
2022/01/16 07:01:50;;;;;;;56.60;27.77;;;2.10;94.90;;;;;;5048821;28;20017;-85
2022/01/16 07:04:15;;;;;;;58.70;28.45;;;2.10;95.00;;;;;;5046742;28;20029;-85
2022/01/16 07:06:41;;;;;;;55.92;27.75;;;2.20;95.00;;;;;;5035251;28;20030;-85
2022/01/16 07:09:06;;;;;;;61.88;29.08;;;2.20;95.10;;;;;;5039381;28;20029;-86
2022/01/16 07:11:32;;;;;;;61.20;29.63;;;2.20;95.20;;;;;;5039595;28;20496;-85
2022/01/16 07:13:58;;;;;;;58.58;27.85;;;2.20;95.30;;;;;;5045981;28;20381;-85
2022/01/16 07:16:23;;;;;;;55.30;27.85;;;2.20;95.40;;;;;;5047298;28;20120;-85
2022/01/16 07:18:49;;;;;;;57.90;28.40;;;2.20;95.50;;;;;;5051587;28;20029;-85
2022/01/16 07:21:15;;;;;;;55.08;26.52;;;2.10;95.60;;;;;;5043840;28;20462;-85
2022/01/16 07:23:42;;;;;;;58.55;27.60;;;2.10;95.70;;;;;;5048033;28;20481;-85
2022/01/16 07:26:07;;;;;;;64.15;28.63;;;2.10;95.80;;;;;;5050119;28;20024;-85
2022/01/16 07:28:33;;;;;;;57.03;27.25;;;2.10;95.90;;;;;;5046524;28;20083;-85
2022/01/16 07:30:58;;;;;;;61.67;28.73;;;2.10;96.00;;;;;;5039421;28;20032;-86
2022/01/16 07:33:24;;;;;;;63.72;29.02;;;2.10;96.10;;;;;;5052450;28;20056;-86
2022/01/16 07:35:50;;;;;;;61.30;29.38;;;2.00;96.20;;;;;;5048860;28;20090;-86
2022/01/16 07:38:15;;;;;;;60.05;27.20;;;2.00;96.30;;;;;;5044212;28;20036;-86
2022/01/16 07:40:41;;;;;;;68.88;28.40;;;2.00;96.30;;;;;;5038727;28;20030;-86
2022/01/16 07:43:07;;;;;;;60.60;27.90;;;2.00;96.40;;;;;;5046591;28;20769;-86
2022/01/16 07:45:33;;;;;;;60.10;27.45;;;2.00;96.40;;;;;;5042719;28;20047;-86
2022/01/16 07:47:59;;;;;;;71.57;28.65;;;2.00;96.50;;;;;;5048584;28;20034;-85
2022/01/16 07:50:25;;;;;;;68.68;29.52;;;1.90;96.50;;;;;;5041459;28;20068;-85
2022/01/16 07:52:50;;;;;;;71.72;29.52;;;1.90;96.50;;;;;;5047502;28;20033;-86
2022/01/16 07:55:18;;;;;;;71.65;30.23;;;1.90;96.60;;;;;;5045200;28;20105;-86
2022/01/16 07:57:44;;;;;;;75.07;28.85;;;1.80;96.60;;;;;;5050728;28;20068;-86
2022/01/16 08:00:10;;;;;;;73.32;30.88;;;1.80;96.60;;;;;;5049302;28;20024;-86
2022/01/16 08:02:36;;;;;;;63.30;27.40;;;1.80;96.70;;;;;;5050089;28;20036;-86
2022/01/16 08:05:02;;;;;;;75.43;29.85;;;1.80;96.70;;;;;;5050641;28;20465;-86
2022/01/16 08:07:27;;;;;;;74.22;30.23;;;1.80;96.70;;;;;;5040356;28;20122;-86
2022/01/16 08:09:53;;;;;;;72.43;28.80;;;1.80;96.70;;;;;;5051731;28;20052;-85
2022/01/16 08:12:18;;;;;;;84.22;32.10;;;1.80;96.80;;;;;;5046728;28;20021;-85
2022/01/16 08:14:44;;;;;;;77.03;30.98;;;1.80;96.80;;;;;;5046345;28;20025;-85
2022/01/16 08:17:10;;;;;;;82.07;31.85;;;1.80;96.80;;;;;;5040244;28;20037;-85
2022/01/16 08:19:35;;;;;;;94.00;34.75;;;1.80;96.80;;;;;;5050166;28;20033;-86
2022/01/16 08:22:01;;;;;;;75.88;30.95;;;1.80;96.90;;;;;;5050724;28;20048;-86
2022/01/16 08:24:27;;;;;;;82.18;31.38;;;1.90;96.90;;;;;;5037882;28;20033;-86
2022/01/16 08:26:52;;;;;;;77.47;29.85;;;1.80;96.90;;;;;;5046019;28;20029;-86
2022/01/16 08:29:19;;;;;;;84.18;31.67;;;1.90;97.00;;;;;;5042308;28;20025;-86
2022/01/16 08:31:44;;;;;;;82.32;32.90;;;1.90;97.00;;;;;;5039097;28;20029;-86
2022/01/16 08:34:10;;;;;;;94.50;34.05;;;1.90;97.00;;;;;;5049713;28;20175;-86
2022/01/16 08:36:35;;;;;;;81.72;31.70;;;1.90;97.10;;;;;;5048912;28;20107;-86
2022/01/16 08:39:01;;;;;;;95.30;31.60;;;1.90;97.10;;;;;;5037963;28;20029;-86
2022/01/16 08:41:27;;;;;;;79.43;31.98;;;1.90;97.10;;;;;;5049631;28;20033;-86
2022/01/16 08:43:52;;;;;;;83.38;31.40;;;2.00;97.20;;;;;;5047322;28;20120;-86
2022/01/16 08:46:18;;;;;;;95.35;31.48;;;2.00;97.10;;;;;;5039388;28;20473;-86
2022/01/16 08:48:44;;;;;;;96.30;31.80;;;2.00;97.20;;;;;;5048333;28;20037;-86
2022/01/16 08:51:09;;;;;;;82.15;30.75;;;2.10;97.20;;;;;;5039920;28;20413;-85
2022/01/16 08:53:35;;;;;;;94.18;32.72;;;2.10;97.30;;;;;;5043020;28;20132;-85
2022/01/16 08:56:01;;;;;;;94.85;31.77;;;2.10;97.30;;;;;;5034626;28;20034;-85
2022/01/16 08:58:27;;;;;;;104.15;35.20;;;2.10;97.30;;;;;;5044099;28;20057;-85
2022/01/16 09:00:53;;;;;;;98.65;31.23;;;2.10;97.30;;;;;;5043390;28;20079;-85
2022/01/16 09:03:22;;;;;;;87.95;32.08;;;2.10;97.30;;;;;;5042273;28;20029;-85
2022/01/16 09:05:49;;;;;;;87.03;32.53;;;2.10;97.40;;;;;;5044389;28;20060;-86
2022/01/16 09:08:16;;;;;;;96.40;33.88;;;2.10;97.40;;;;;;5040489;28;20032;-85
2022/01/16 09:10:42;;;;;;;93.22;32.78;;;2.20;97.40;;;;;;5043221;28;20064;-84
2022/01/16 09:13:15;;;;;;;80.13;31.90;;;2.20;97.50;;;;;;5047378;28;20094;-85
2022/01/16 09:15:43;;;;;;;101.93;35.25;;;2.20;97.50;;;;;;5035186;28;20041;-85
2022/01/16 09:18:10;;;;;;;86.60;33.67;;;2.20;97.50;;;;;;5039846;28;20068;-85
2022/01/16 09:20:36;;;;;;;110.65;36.95;;;2.20;97.60;;;;;;5041718;28;20078;-85
2022/01/16 09:23:02;;;;;;;105.32;34.88;;;2.20;97.60;;;;;;5046532;28;20396;-86
2022/01/16 09:25:28;;;;;;;105.65;34.83;;;2.20;97.60;;;;;;5040502;28;20057;-85
2022/01/16 09:27:53;;;;;;;101.50;36.80;;;2.30;97.60;;;;;;5046562;28;20075;-85
2022/01/16 09:30:20;;;;;;;106.35;35.83;;;2.30;97.70;;;;;;5044279;28;20029;-85
2022/01/16 09:32:46;;;;;;;105.22;35.58;;;2.30;97.70;;;;;;5036088;28;20033;-85
2022/01/16 09:35:13;;;;;;;113.57;36.72;;;2.30;97.70;;;;;;5046278;28;20028;-86
2022/01/16 09:37:39;;;;;;;114.95;36.22;;;2.40;97.70;;;;;;5044942;28;20032;-86
2022/01/16 09:40:08;;;;;;;107.43;37.30;;;2.40;97.70;;;;;;5046156;28;20025;-86
2022/01/16 09:42:34;;;;;;;108.25;36.58;;;2.40;97.70;;;;;;5044792;28;20397;-84
2022/01/16 09:45:00;;;;;;;112.78;36.97;;;2.50;97.70;;;;;;5042899;28;20028;-84
2022/01/16 09:47:26;;;;;;;113.22;37.53;;;2.60;97.80;;;;;;5039439;28;20057;-84
2022/01/16 09:49:52;;;;;;;127.30;38.10;;;2.50;97.70;;;;;;5046802;28;20122;-85
2022/01/16 09:52:18;;;;;;;119.35;37.08;;;2.50;97.70;;;;;;5030787;28;20072;-84
2022/01/16 09:54:44;;;;;;;104.88;33.90;;;2.60;97.70;;;;;;5035148;28;20021;-85
2022/01/16 09:57:12;;;;;;;112.03;37.72;;;2.60;97.80;;;;;;5044678;28;20035;-85
2022/01/16 09:59:37;;;;;;;102.13;33.85;;;2.60;97.70;;;;;;5042076;28;20035;-85
2022/01/16 10:02:05;;;;;;;79.78;30.17;;;2.60;97.70;;;;;;5044156;28;20059;-85
2022/01/16 10:04:32;;;;;;;96.05;34.58;;;2.60;97.70;;;;;;5048063;28;20033;-84
2022/01/16 10:07:00;;;;;;;112.35;36.05;;;2.60;97.70;;;;;;5037278;28;20113;-84
2022/01/16 10:09:26;;;;;;;112.35;35.15;;;2.60;97.70;;;;;;5039151;28;20029;-84
2022/01/16 10:12:02;;;;;;;86.13;29.13;;;2.70;97.80;;;;;;5036443;28;20025;-84
2022/01/16 10:14:36;;;;;;;108.95;33.95;;;2.70;97.80;;;;;;5044801;28;20492;-84
2022/01/16 10:17:10;;;;;;;100.68;32.25;;;2.70;97.80;;;;;;5040341;28;20033;-84
2022/01/16 10:19:35;;;;;;;113.18;33.65;;;2.70;97.80;;;;;;5039965;28;20534;-84
2022/01/16 10:22:06;;;;;;;106.80;33.30;;;2.70;97.80;;;;;;5044822;28;20124;-84
2022/01/16 10:24:34;;;;;;;96.97;31.30;;;2.70;97.80;;;;;;5044561;28;20078;-84
2022/01/16 10:27:08;;;;;;;83.60;30.73;;;2.80;97.80;;;;;;5041151;28;20033;-84
2022/01/16 10:29:38;;;;;;;78.13;30.52;;;2.80;97.70;;;;;;5029953;28;20709;-84
2022/01/16 10:32:33;;;;;;;84.22;29.75;;;2.80;97.80;;;;;;5042097;28;20399;-84
2022/01/16 10:35:08;;;;;;;88.15;29.73;;;2.80;97.80;;;;;;5049697;28;20032;-84
2022/01/16 10:37:34;;;;;;;79.70;28.30;;;2.80;97.70;;;;;;5051213;28;20044;-84
2022/01/16 10:40:01;;;;;;;76.95;27.10;;;2.80;97.70;;;;;;5047586;28;20022;-84
2022/01/16 10:42:29;;;;;;;76.22;28.70;;;2.90;97.70;;;;;;5043188;28;20029;-84
2022/01/16 10:45:00;;;;;;;83.97;29.65;;;2.90;97.70;;;;;;5050164;28;20488;-84
2022/01/16 10:47:44;;;;;;;72.30;26.55;;;2.90;97.80;;;;;;5051538;28;20438;-84
2022/01/16 10:50:13;;;;;;;86.63;28.67;;;2.90;97.70;;;;;;5038873;28;20492;-84
2022/01/16 10:52:47;;;;;;;63.88;25.48;;;2.90;97.70;;;;;;5049890;28;20080;-85
2022/01/16 10:55:13;;;;;;;81.03;27.63;;;3.00;97.70;;;;;;5048595;28;20032;-84
2022/01/16 10:57:40;;;;;;;64.72;26.23;;;3.00;97.80;;;;;;5050743;28;20033;-84
2022/01/16 11:00:10;;;;;;;64.60;25.42;;;2.90;97.70;;;;;;5049894;28;20467;-84
2022/01/16 11:02:37;;;;;;;63.37;24.03;;;2.90;97.70;;;;;;5036494;28;20029;-84
2022/01/16 11:05:15;;;;;;;52.95;22.42;;;3.00;97.70;;;;;;5032220;28;20029;-84
2022/01/16 11:07:42;;;;;;;62.60;24.27;;;3.00;97.70;;;;;;5048379;28;20037;-84
2022/01/16 11:10:27;;;;;;;60.97;24.13;;;2.90;97.70;;;;;;5045321;28;20029;-85
2022/01/16 11:12:54;;;;;;;67.22;25.70;;;3.00;97.80;;;;;;5051441;28;20083;-84
2022/01/16 11:15:20;;;;;;;58.50;21.88;;;3.00;97.80;;;;;;5048781;28;20028;-85
2022/01/16 11:17:46;;;;;;;63.67;24.80;;;3.00;97.80;;;;;;5047144;28;20205;-84
2022/01/16 11:20:13;;;;;;;47.47;18.70;;;3.00;97.70;;;;;;5045073;28;20032;-85
2022/01/16 11:23:00;;;;;;;55.15;22.02;;;3.00;97.70;;;;;;5041897;28;20052;-84
2022/01/16 11:25:31;;;;;;;52.47;20.60;;;3.00;97.80;;;;;;5037865;28;20147;-84
2022/01/16 11:28:00;;;;;;;57.30;21.92;;;3.00;97.80;;;;;;5047881;28;20037;-84
2022/01/16 11:30:27;;;;;;;58.22;23.00;;;3.10;97.80;;;;;;5049039;28;20552;-85
2022/01/16 11:32:53;;;;;;;58.25;21.48;;;3.10;97.80;;;;;;5048741;28;20390;-85
2022/01/16 11:35:19;;;;;;;53.97;22.67;;;3.00;97.70;;;;;;5042006;28;20160;-84
2022/01/16 11:37:45;;;;;;;50.42;22.33;;;3.00;97.80;;;;;;5042765;28;20050;-84
2022/01/16 11:40:25;;;;;;;56.25;21.33;;;3.00;97.80;;;;;;5042644;28;20025;-84
2022/01/16 11:43:17;;;;;;;46.28;17.85;;;3.00;97.80;;;;;;5046093;28;20502;-84
2022/01/16 11:46:05;;;;;;;62.28;23.60;;;3.00;97.80;;;;;;5037074;28;20035;-83
2022/01/16 11:48:36;;;;;;;48.30;19.77;;;3.10;97.80;;;;;;5039018;28;20086;-84
2022/01/16 11:51:03;;;;;;;59.08;23.27;;;3.10;97.80;;;;;;5041259;28;20059;-84
2022/01/16 11:53:56;;;;;;;59.95;22.33;;;3.10;97.80;;;;;;5046629;28;21448;-84
2022/01/16 11:56:40;;;;;;;64.72;24.48;;;3.10;97.80;;;;;;5045536;28;20020;-84
2022/01/16 11:59:11;;;;;;;70.13;25.88;;;3.10;97.90;;;;;;5047490;28;20013;-84
2022/01/16 12:01:48;;;;;;;70.10;25.02;;;3.10;97.90;;;;;;5039781;28;20026;-84
2022/01/16 12:04:34;;;;;;;67.55;26.35;;;3.10;97.90;;;;;;5050110;28;20032;-84
2022/01/16 12:07:01;;;;;;;66.93;24.60;;;3.20;97.90;;;;;;5037527;28;20114;-84
2022/01/16 12:09:36;;;;;;;68.32;25.45;;;3.20;97.90;;;;;;5049542;28;20060;-84
2022/01/16 12:12:14;;;;;;;70.32;27.52;;;3.20;97.90;;;;;;5038859;28;20086;-84
2022/01/16 12:15:02;;;;;;;60.75;22.60;;;3.20;97.90;;;;;;5049049;28;20484;-84
2022/01/16 12:20:27;;;;;;;58.15;23.35;;;3.30;97.90;;;;;;5046204;28;20397;-84
2022/01/16 12:22:55;;;;;;;81.20;32.95;;;3.30;97.80;;;;;;5044945;28;20023;-84
2022/01/16 12:25:45;;;;;;;80.43;31.30;;;3.30;97.80;;;;;;5042015;28;20025;-84
2022/01/16 12:28:10;;;;;;;81.53;31.70;;;3.40;97.80;;;;;;5033786;28;20026;-84
2022/01/16 12:30:48;;;;;;;88.47;35.50;;;3.40;97.80;;;;;;5048490;28;20091;-84
2022/01/16 12:33:23;;;;;;;94.40;36.35;;;3.40;97.80;;;;;;5046091;28;20079;-83
2022/01/16 12:35:51;;;;;;;94.18;35.97;;;3.40;97.80;;;;;;5040082;28;20415;-84
2022/01/16 12:38:30;;;;;;;94.88;36.30;;;3.40;97.80;;;;;;5043297;28;20025;-84
2022/01/16 12:41:07;;;;;;;98.55;36.20;;;3.50;97.80;;;;;;5045688;28;20024;-84
2022/01/16 12:43:40;;;;;;;101.68;37.17;;;3.50;97.80;;;;;;5040100;28;20029;-84
2022/01/16 12:46:08;;;;;;;103.10;39.33;;;3.60;97.80;;;;;;5042320;28;20021;-84
2022/01/16 12:48:40;;;;;;;107.45;38.28;;;3.60;97.70;;;;;;5040043;28;20029;-84
2022/01/16 12:51:07;;;;;;;113.30;40.95;;;3.70;97.70;;;;;;5043752;28;20115;-84
2022/01/16 12:53:41;;;;;;;111.50;40.45;;;3.70;97.70;;;;;;5040151;28;20120;-84
2022/01/16 12:56:44;;;;;;;101.50;38.50;;;3.80;97.70;;;;;;5034921;28;20025;-84
2022/01/16 12:59:31;;;;;;;115.55;42.38;;;3.80;97.60;;;;;;5037665;28;20480;-84
2022/01/16 13:02:03;;;;;;;102.07;37.60;;;3.80;97.60;;;;;;5038068;28;20433;-84
2022/01/16 13:04:34;;;;;;;110.70;41.58;;;3.90;97.60;;;;;;5045358;28;20579;-84
2022/01/16 13:07:10;;;;;;;;;;;3.90;97.50;;;;;;5029534;28;20021;-84
2022/01/16 13:09:36;;;;;;;103.18;40.28;;;4.00;97.50;;;;;;5040923;28;20015;-84
2022/01/16 13:12:03;;;;;;;105.18;39.15;;;4.00;97.40;;;;;;5039203;28;20033;-84
2022/01/16 13:14:35;;;;;;;103.40;38.72;;;4.10;97.40;;;;;;5043742;28;20170;-84
2022/01/16 13:17:04;;;;;;;97.72;37.45;;;4.10;97.40;;;;;;5047091;28;20056;-84
2022/01/16 13:19:38;;;;;;;92.72;35.63;;;4.10;97.30;;;;;;5043866;28;20331;-84
2022/01/16 13:22:11;;;;;;;94.50;38.13;;;4.10;97.20;;;;;;5041682;28;20612;-84
2022/01/16 13:24:44;;;;;;;108.53;41.72;;;4.10;97.20;;;;;;5048471;28;20032;-84
2022/01/16 13:27:12;;;;;;;107.57;40.33;;;4.10;97.20;;;;;;5036696;28;20044;-84